Time;durP1;ratioP1;P1;durP2;ratioP2;P2;SDS_P1;SDS_P2;PMS_P1;PMS_P2;Temp;Humidity;BMP_temperature;BMP_pressure;BME280_temperature;BME280_humidity;BME280_pressure;Samples;Min_cycle;Max_cycle;Signal;HPM_P1;HPM_P2
2022/05/24 00:00:57;;;;;;;6.90;6.28;;;;;;;16.31;73.33;97735.56;2622368;54;20034;-64
2022/05/24 00:03:30;;;;;;;9.45;7.15;;;;;;;16.32;73.43;97735.31;2622199;54;20022;-65
2022/05/24 00:06:00;;;;;;;8.15;7.35;;;;;;;16.26;73.21;97743.53;2622211;39;20522;-66
2022/05/24 00:08:29;;;;;;;7.30;6.60;;;;;;;16.25;73.81;97742.75;2622196;54;20023;-65
2022/05/24 00:10:59;;;;;;;7.82;6.50;;;;;;;16.28;73.62;97741.41;2622088;54;20566;-65
2022/05/24 00:13:29;;;;;;;6.63;6.03;;;;;;;16.23;73.79;97742.19;2622222;46;20054;-66
2022/05/24 00:15:58;;;;;;;7.78;6.28;;;;;;;16.26;73.58;97748.88;2622258;54;20038;-66
2022/05/24 00:18:32;;;;;;;6.80;5.38;;;;;;;16.27;73.71;97748.59;2621701;54;20030;-65
2022/05/24 00:21:04;;;;;;;7.70;5.40;;;;;;;16.27;73.68;97745.94;2621983;54;20042;-66
2022/05/24 00:23:34;;;;;;;6.25;4.90;;;;;;;16.22;73.37;97748.56;2622669;39;20479;-65
2022/05/24 00:26:07;;;;;;;7.25;5.65;;;;;;;16.19;73.88;97743.75;2621817;54;20037;-66
2022/05/24 00:28:38;;;;;;;8.23;6.05;;;;;;;16.19;73.81;97741.06;2621903;54;20556;-66
2022/05/24 00:31:08;;;;;;;6.50;5.60;;;;;;;16.11;74.02;97730.88;2621759;54;20034;-68
2022/05/24 00:33:40;;;;;;;8.25;5.68;;;;;;;16.11;73.89;97730.88;2621314;46;20038;-66
2022/05/24 00:36:10;;;;;;;6.15;5.55;;;;;;;16.10;73.96;97732.75;2622326;54;20122;-66
2022/05/24 00:38:40;;;;;;;6.72;6.03;;;;;;;16.14;74.32;97734.91;2621970;54;20094;-65
2022/05/24 00:41:17;;;;;;;8.15;5.97;;;;;;;16.19;74.09;97729.59;2622004;54;20038;-66
2022/05/24 00:43:49;;;;;;;5.57;5.00;;;;;;;16.15;73.71;97725.84;2622177;54;20046;-65
2022/05/24 00:46:24;;;;;;;7.85;5.22;;;;;;;16.10;74.49;97732.75;2622506;54;20025;-65
2022/05/24 00:49:00;;;;;;;6.30;5.70;;;;;;;16.11;74.42;97728.22;2619794;54;20562;-65
2022/05/24 00:51:35;;;;;;;6.20;5.22;;;;;;;16.12;74.18;97721.00;2621661;54;20585;-66
2022/05/24 00:54:06;;;;;;;6.68;5.28;;;;;;;16.09;74.37;97730.34;2622543;39;20423;-66
2022/05/24 00:56:49;;;;;;;6.63;4.95;;;;;;;16.13;73.98;97720.78;2620909;54;20042;-66
2022/05/24 00:59:29;;;;;;;7.88;5.40;;;;;;;16.08;73.98;97721.53;2621699;54;20033;-66
2022/05/24 01:01:59;;;;;;;8.05;5.80;;;;;;;16.10;74.36;97729.28;2621907;54;20026;-65
2022/05/24 01:04:31;;;;;;;5.90;5.13;;;;;;;16.12;74.16;97727.16;2621965;54;20518;-65
2022/05/24 01:07:01;;;;;;;6.15;5.50;;;;;;;16.11;73.94;97728.22;2621685;54;20030;-66
2022/05/24 01:09:40;;;;;;;6.93;5.53;;;;;;;16.12;74.27;97718.34;2621768;54;20073;-66
2022/05/24 01:12:16;;;;;;;9.60;5.68;;;;;;;16.11;73.98;97733.53;2621276;54;20038;-66
2022/05/24 01:14:46;;;;;;;6.78;5.78;;;;;;;16.10;73.97;97730.06;2620167;47;20023;-66
2022/05/24 01:17:17;;;;;;;7.53;5.68;;;;;;;16.07;74.14;97722.59;2619484;47;20035;-66
2022/05/24 01:19:51;;;;;;;7.70;5.90;;;;;;;16.04;74.31;97722.28;2621316;54;20034;-65
2022/05/24 01:22:37;;;;;;;7.78;5.80;;;;;;;16.00;74.22;97714.00;2622109;54;20038;-65
2022/05/24 01:25:14;;;;;;;6.22;5.57;;;;;;;15.94;74.62;97716.88;2621454;47;20034;-66
2022/05/24 01:27:46;;;;;;;7.60;5.50;;;;;;;15.95;74.52;97716.63;2621163;54;20038;-66
2022/05/24 01:30:16;;;;;;;9.85;6.30;;;;;;;15.88;74.83;97715.22;2621535;54;20027;-66
2022/05/24 01:38:15;;;;;;;7.45;6.18;;;;;;;15.83;74.91;97706.13;2621015;47;20034;-66
2022/05/24 01:40:45;;;;;;;;;;;;;;;15.78;74.84;97715.94;2622170;54;20166;-66
2022/05/24 01:43:19;;;;;;;7.97;6.07;;;;;;;15.77;74.88;97725.78;2621442;47;19946;-65
2022/05/24 01:45:51;;;;;;;;;;;;;;;15.75;75.44;97725.22;2622159;54;20034;-65
2022/05/24 01:48:26;;;;;;;9.13;6.63;;;;;;;15.74;75.44;97720.97;2621984;54;19950;-66
2022/05/24 01:50:58;;;;;;;7.95;6.70;;;;;;;15.73;75.98;97710.56;2622389;54;20034;-65
2022/05/24 01:53:36;;;;;;;9.38;6.80;;;;;;;15.69;76.25;97710.25;2621586;54;20604;-66
2022/05/24 01:56:31;;;;;;;9.98;6.70;;;;;;;15.70;76.21;97700.41;2622601;54;20134;-66
2022/05/24 01:59:05;;;;;;;13.98;6.85;;;;;;;15.75;76.19;97711.91;2622207;54;20034;-65
2022/05/24 02:01:42;;;;;;;10.73;6.53;;;;;;;15.78;76.24;97702.59;2622745;54;20014;-66
2022/05/24 02:04:12;;;;;;;10.20;7.30;;;;;;;15.78;76.22;97703.41;2622788;54;20038;-66
2022/05/24 02:06:41;;;;;;;7.95;7.00;;;;;;;15.80;76.22;97705.84;2623531;39;20713;-65
2022/05/24 02:09:12;;;;;;;9.98;7.15;;;;;;;15.81;76.02;97705.56;2622473;54;20038;-65
2022/05/24 02:11:42;;;;;;;8.65;6.70;;;;;;;15.79;76.60;97701.53;2622044;54;20033;-66
2022/05/24 02:14:21;;;;;;;9.82;6.93;;;;;;;15.87;76.41;97698.41;2622541;54;20034;-65
2022/05/24 02:17:00;;;;;;;8.30;6.65;;;;;;;15.91;76.04;97694.19;2622403;54;20037;-65
2022/05/24 02:19:31;;;;;;;9.38;7.57;;;;;;;15.88;76.25;97684.06;2621726;54;20049;-65
2022/05/24 02:22:05;;;;;;;8.05;6.57;;;;;;;15.90;76.48;97681.94;2621827;54;20033;-65
2022/05/24 02:24:35;;;;;;;6.85;6.25;;;;;;;15.90;76.13;97673.94;2622349;54;20033;-67
2022/05/24 02:27:08;;;;;;;7.50;6.13;;;;;;;15.87;76.70;97660.31;2621821;54;20557;-65
2022/05/24 02:29:40;;;;;;;6.47;5.50;;;;;;;15.88;76.89;97662.75;2622997;54;20031;-66
2022/05/24 02:32:10;;;;;;;6.05;5.45;;;;;;;15.84;76.63;97662.44;2622644;54;20026;-66
2022/05/24 02:34:40;;;;;;;6.13;5.53;;;;;;;15.81;76.35;97660.28;2622372;54;20021;-65
2022/05/24 02:37:10;;;;;;;6.68;5.47;;;;;;;15.79;76.65;97670.38;2622415;31;20553;-65
2022/05/24 02:42:22;;;;;;;4.85;4.38;;;;;;;15.77;76.44;97679.69;2621442;39;20395;-65
2022/05/24 02:44:54;;;;;;;4.45;3.85;;;;;;;15.77;76.70;97672.50;2621802;54;20027;-66
2022/05/24 02:47:24;;;;;;;7.55;3.70;;;;;;;15.82;76.25;97677.88;2621855;54;20078;-66
2022/05/24 02:49:53;;;;;;;8.55;4.55;;;;;;;15.88;76.11;97664.56;2622193;54;20041;-65
2022/05/24 02:52:23;;;;;;;4.40;3.33;;;;;;;15.83;75.63;97671.47;2622362;54;20035;-65
2022/05/24 02:54:52;;;;;;;8.70;3.30;;;;;;;15.85;75.68;97676.56;2623511;39;20439;-65
2022/05/24 02:57:22;;;;;;;5.20;3.58;;;;;;;15.89;75.90;97684.88;2621971;54;20033;-65
2022/05/24 02:59:54;;;;;;;3.50;3.17;;;;;;;15.89;75.66;97679.53;2622644;54;20038;-65
2022/05/24 03:02:24;;;;;;;5.20;3.45;;;;;;;15.87;75.87;97676.31;2622974;54;20038;-65
2022/05/24 03:04:53;;;;;;;4.57;3.65;;;;;;;15.77;76.02;97675.16;2622991;54;20054;-65
2022/05/24 03:10:06;;;;;;;5.15;3.80;;;;;;;15.73;75.79;97675.94;2622848;54;20042;-64
2022/05/24 03:15:21;;;;;;;6.47;3.38;;;;;;;15.72;76.05;97667.13;2622256;39;20414;-65
2022/05/24 03:17:51;;;;;;;7.03;3.60;;;;;;;15.74;75.92;97673.00;2622461;54;20034;-64
2022/05/24 03:20:20;;;;;;;4.47;3.70;;;;;;;15.74;75.63;97669.53;2622929;54;20033;-65
2022/05/24 03:22:50;;;;;;;5.28;3.30;;;;;;;15.78;75.83;97681.28;2623149;54;20035;-65
2022/05/24 03:25:22;;;;;;;7.97;3.45;;;;;;;15.74;75.17;97678.31;2622753;47;20098;-65
2022/05/24 03:27:51;;;;;;;4.13;2.92;;;;;;;15.71;75.33;97681.50;2623291;54;20038;-64
2022/05/24 03:30:24;;;;;;;5.38;2.95;;;;;;;15.68;75.86;97687.34;2623355;54;20022;-65
2022/05/24 03:32:53;;;;;;;3.97;2.40;;;;;;;15.64;75.18;97686.22;2622608;47;20130;-65
2022/05/24 03:35:24;;;;;;;3.00;2.70;;;;;;;15.55;75.79;97688.53;2622590;54;20023;-66
2022/05/24 03:37:54;;;;;;;3.13;2.45;;;;;;;15.52;75.43;97688.22;2623378;39;20457;-65
2022/05/24 03:40:24;;;;;;;2.83;2.53;;;;;;;15.50;75.67;97682.31;2622993;54;20034;-65
2022/05/24 03:42:54;;;;;;;2.88;2.30;;;;;;;15.48;75.26;97685.25;2622629;54;20018;-66
2022/05/24 03:45:27;;;;;;;3.80;2.65;;;;;;;15.44;75.61;97691.34;2622954;54;20041;-66
2022/05/24 03:47:57;;;;;;;2.22;2.03;;;;;;;15.41;75.82;97678.50;2622197;54;20023;-66
2022/05/24 03:50:27;;;;;;;3.22;2.45;;;;;;;15.39;75.95;97683.28;2621497;54;20046;-66
2022/05/24 03:52:57;;;;;;;2.17;1.95;;;;;;;15.39;75.76;97678.78;2622969;54;20130;-66
2022/05/24 03:55:27;;;;;;;2.80;2.47;;;;;;;15.44;75.98;97678.81;2622500;54;20038;-66
2022/05/24 03:58:03;;;;;;;2.22;2.03;;;;;;;15.49;75.96;97689.53;2622575;54;20027;-65
2022/05/24 04:00:38;;;;;;;2.83;2.25;;;;;;;15.58;75.45;97696.00;2622886;46;20061;-65
2022/05/24 04:03:09;;;;;;;5.45;2.30;;;;;;;15.54;75.63;97694.88;2622925;54;20025;-65
2022/05/24 04:05:46;;;;;;;2.67;2.25;;;;;;;15.56;75.52;97703.44;2622314;54;20038;-66
2022/05/24 04:08:18;;;;;;;5.25;2.85;;;;;;;15.64;75.69;97701.41;2621191;54;20110;-65
2022/05/24 04:10:48;;;;;;;1.92;1.83;;;;;;;15.68;74.93;97705.19;2620733;54;20031;-66
2022/05/24 04:13:17;;;;;;;5.03;4.53;;;;;;;15.74;74.83;97696.97;2621716;39;20473;-65
2022/05/24 04:15:50;;;;;;;3.35;2.00;;;;;;;15.72;74.59;97691.13;2621327;54;20165;-65
2022/05/24 04:18:22;;;;;;;3.63;2.33;;;;;;;15.74;74.58;97696.97;2621167;54;20036;-65
2022/05/24 04:20:55;;;;;;;4.00;2.38;;;;;;;15.76;74.02;97699.41;2621395;54;20038;-66
2022/05/24 04:23:26;;;;;;;2.85;2.60;;;;;;;15.72;73.71;97700.97;2621741;39;20453;-67
2022/05/24 04:25:56;;;;;;;5.30;2.50;;;;;;;15.71;73.99;97700.13;2621733;54;20581;-66
2022/05/24 04:28:26;;;;;;;3.95;2.45;;;;;;;15.64;74.11;97704.84;2622476;39;20431;-66
2022/05/24 04:31:05;;;;;;;5.88;2.30;;;;;;;15.63;73.84;97711.22;2621882;54;20042;-66
2022/05/24 04:33:35;;;;;;;3.33;2.45;;;;;;;15.70;74.28;97708.41;2622223;54;20562;-66
2022/05/24 04:36:05;;;;;;;6.03;4.63;;;;;;;15.74;73.81;97712.16;2622823;39;20444;-67
2022/05/24 04:38:36;;;;;;;4.57;2.72;;;;;;;15.66;73.69;97708.09;2622017;54;20086;-66
2022/05/24 04:43:51;;;;;;;3.10;2.15;;;;;;;15.57;74.01;97699.72;2622157;54;20570;-67
2022/05/24 04:46:24;;;;;;;3.25;2.38;;;;;;;15.54;74.21;97718.88;2620810;47;20113;-66
2022/05/24 04:48:54;;;;;;;1.92;1.83;;;;;;;15.47;74.70;97762.72;2621600;54;20074;-66
2022/05/24 04:51:23;;;;;;;6.57;4.10;;;;;;;15.36;75.84;97757.28;2621425;39;20439;-66
2022/05/24 04:53:53;;;;;;;2.90;2.42;;;;;;;15.28;77.04;97776.38;2621925;54;20038;-66
2022/05/24 04:56:23;;;;;;;2.92;1.90;;;;;;;15.19;77.22;97787.72;2622908;54;20044;-63
2022/05/24 04:58:52;;;;;;;1.95;1.75;;;;;;;15.11;76.86;97786.28;2622705;54;20045;-65
2022/05/24 05:01:24;;;;;;;1.25;1.13;;;;;;;15.07;76.67;97791.28;2620582;54;20037;-64
2022/05/24 05:03:54;;;;;;;1.38;0.90;;;;;;;15.11;76.43;97792.41;2622881;54;20022;-64
2022/05/24 05:06:27;;;;;;;1.55;1.17;;;;;;;15.20;75.75;97803.41;2622272;47;20018;-65
2022/05/24 05:08:57;;;;;;;0.90;0.90;;;;;;;15.19;75.04;97804.47;2622119;54;20039;-66
2022/05/24 05:11:26;;;;;;;2.25;1.40;;;;;;;15.15;74.25;97808.69;2620945;54;20066;-65
2022/05/24 05:13:56;;;;;;;2.30;1.20;;;;;;;15.26;74.99;97820.25;2622764;39;20495;-65
2022/05/24 05:16:28;;;;;;;1.10;1.00;;;;;;;15.47;73.97;97824.81;2620842;47;20030;-66
2022/05/24 05:18:59;;;;;;;1.45;1.35;;;;;;;15.57;73.95;97816.13;2621082;54;20049;-65
2022/05/24 05:21:31;;;;;;;0.80;0.80;;;;;;;15.61;73.46;97811.91;2621132;54;20034;-65
2022/05/24 05:24:00;;;;;;;1.48;1.10;;;;;;;15.64;72.87;97815.94;2620469;54;20034;-65
2022/05/24 05:26:30;;;;;;;0.98;0.90;;;;;;;15.60;73.21;97819.09;2620040;54;20027;-67
2022/05/24 05:29:00;;;;;;;2.33;1.30;;;;;;;15.58;72.64;97810.53;2619967;54;20045;-65
2022/05/24 05:31:30;;;;;;;1.20;1.00;;;;;;;15.68;73.03;97822.41;2619746;54;20035;-65
2022/05/24 05:34:02;;;;;;;1.63;1.45;;;;;;;15.79;73.32;97837.44;2618840;54;20553;-65
2022/05/24 05:36:33;;;;;;;1.80;1.20;;;;;;;15.69;73.28;97840.00;2621227;54;20038;-66
2022/05/24 05:39:03;;;;;;;1.48;1.38;;;;;;;15.53;73.47;97845.13;2621633;54;20030;-66
2022/05/24 05:41:34;;;;;;;1.10;1.00;;;;;;;15.47;73.23;97838.13;2622463;54;20035;-66
2022/05/24 05:44:03;;;;;;;3.17;1.30;;;;;;;15.60;72.96;97847.59;2621986;47;20038;-66
2022/05/24 05:46:36;;;;;;;3.15;1.70;;;;;;;15.61;72.50;97846.53;2622587;54;20026;-65
2022/05/24 05:49:05;;;;;;;1.85;1.40;;;;;;;15.74;72.78;97862.16;2622850;54;20030;-65
2022/05/24 05:51:35;;;;;;;1.80;1.27;;;;;;;15.90;72.17;97857.03;2623020;54;20027;-65
2022/05/24 05:54:06;;;;;;;2.58;1.17;;;;;;;16.05;71.59;97870.53;2623448;39;20496;-65
2022/05/24 05:56:36;;;;;;;1.70;1.20;;;;;;;16.08;71.05;97875.34;2623084;54;20059;-65
2022/05/24 05:59:05;;;;;;;1.33;0.90;;;;;;;16.12;70.41;97888.97;2622797;54;20030;-66
2022/05/24 06:01:38;;;;;;;2.10;1.27;;;;;;;16.10;70.76;97899.91;2622910;54;20034;-65
2022/05/24 06:04:07;;;;;;;1.67;1.10;;;;;;;15.95;71.04;97910.38;2622087;54;20033;-65
2022/05/24 06:06:41;;;;;;;3.78;1.65;;;;;;;15.75;71.03;97913.59;2622322;54;20026;-65
2022/05/24 06:09:11;;;;;;;2.70;1.67;;;;;;;15.71;71.19;97931.94;2622742;54;20046;-65
2022/05/24 06:11:40;;;;;;;2.75;1.30;;;;;;;15.50;71.18;97925.50;2622647;54;20038;-66
2022/05/24 06:14:11;;;;;;;2.80;1.52;;;;;;;15.33;72.13;97940.72;2622164;54;20022;-66
2022/05/24 06:16:43;;;;;;;2.70;1.20;;;;;;;15.31;72.79;97940.16;2622498;54;20034;-66
2022/05/24 06:19:13;;;;;;;2.28;1.60;;;;;;;15.24;71.99;97942.97;2623117;54;20038;-65
2022/05/24 06:21:43;;;;;;;3.00;1.30;;;;;;;15.19;72.70;97937.59;2620324;54;20045;-65
2022/05/24 06:24:14;;;;;;;3.00;1.30;;;;;;;15.26;72.28;97937.41;2620471;54;20034;-65
2022/05/24 06:26:44;;;;;;;3.15;1.30;;;;;;;15.42;72.42;97941.91;2619977;54;20039;-66
2022/05/24 06:29:13;;;;;;;1.20;1.10;;;;;;;15.42;71.91;97944.56;2619962;54;20034;-65
2022/05/24 06:31:46;;;;;;;3.58;2.00;;;;;;;15.38;71.66;97942.63;2620214;54;20038;-66
2022/05/24 06:34:17;;;;;;;2.10;1.37;;;;;;;15.40;72.20;97948.53;2621083;54;20058;-65
2022/05/24 06:36:47;;;;;;;1.98;1.50;;;;;;;15.60;71.88;97954.16;2620536;54;20035;-66
2022/05/24 06:39:17;;;;;;;2.88;1.30;;;;;;;15.62;71.06;97949.38;2620992;54;20031;-66
2022/05/24 06:41:51;;;;;;;2.05;1.30;;;;;;;15.88;71.39;97950.56;2621121;39;20443;-66
2022/05/24 06:44:24;;;;;;;4.90;2.40;;;;;;;15.96;70.75;97962.63;2620316;54;20023;-66
2022/05/24 06:46:57;;;;;;;1.73;1.35;;;;;;;15.80;70.30;97972.31;2620872;54;20034;-66
2022/05/24 06:49:26;;;;;;;2.65;1.50;;;;;;;15.66;71.33;97981.69;2620871;54;20550;-66
2022/05/24 06:51:59;;;;;;;3.50;2.45;;;;;;;15.75;71.40;97988.22;2621274;54;20037;-67
2022/05/24 06:54:29;;;;;;;3.15;1.35;;;;;;;15.59;70.21;97984.50;2621541;54;20055;-65
2022/05/24 06:56:58;;;;;;;1.75;1.40;;;;;;;15.44;70.35;97977.09;2620903;54;20562;-64
2022/05/24 07:04:58;;;;;;;2.05;1.25;;;;;;;15.42;68.73;97965.06;2621837;39;20534;-65
2022/05/24 07:07:30;;;;;;;1.58;1.10;;;;;;;15.47;69.42;97973.13;2623091;39;20693;-65
2022/05/24 07:09:59;;;;;;;1.20;1.10;;;;;;;15.63;69.17;97993.59;2622013;54;20022;-65
2022/05/24 07:12:29;;;;;;;1.60;0.90;;;;;;;15.58;68.27;97986.34;2622010;54;20019;-65
2022/05/24 07:14:59;;;;;;;1.35;1.00;;;;;;;15.67;68.36;97992.09;2621856;54;20046;-64
2022/05/24 07:17:32;;;;;;;1.60;1.20;;;;;;;15.73;67.97;97993.78;2622558;54;20039;-64
2022/05/24 07:20:01;;;;;;;1.90;1.20;;;;;;;15.89;68.02;97983.34;2622112;54;20538;-64
2022/05/24 07:22:31;;;;;;;3.25;1.20;;;;;;;16.06;67.49;97995.56;2622644;54;20034;-65
2022/05/24 07:25:01;;;;;;;3.75;1.58;;;;;;;16.03;66.94;97990.72;2622838;54;20066;-65
2022/05/24 07:27:31;;;;;;;2.05;1.10;;;;;;;16.19;66.36;97991.72;2622944;54;20038;-65
2022/05/24 07:30:01;;;;;;;1.95;1.10;;;;;;;16.41;65.74;97990.88;2623995;39;20415;-65
2022/05/24 07:32:34;;;;;;;2.20;0.98;;;;;;;16.38;65.76;97994.88;2625291;39;20558;-65
2022/05/24 07:35:05;;;;;;;2.22;1.80;;;;;;;16.28;66.13;98000.09;2623054;54;20019;-66
2022/05/24 07:37:35;;;;;;;0.90;0.90;;;;;;;16.27;66.32;98003.81;2622101;54;20047;-65
2022/05/24 07:48:15;;;;;;;2.30;1.30;;;;;;;16.07;64.62;98018.50;2622609;39;20471;-66
2022/05/24 07:50:53;;;;;;;1.30;1.00;;;;;;;16.09;64.99;98032.41;2621020;54;20026;-66
2022/05/24 07:53:23;;;;;;;1.70;1.00;;;;;;;16.23;64.64;98030.16;2622239;54;20026;-66
2022/05/24 07:55:52;;;;;;;1.80;1.33;;;;;;;16.21;64.67;98036.81;2623222;54;20037;-66
2022/05/24 07:58:22;;;;;;;3.67;1.23;;;;;;;16.01;64.56;98043.50;2622592;47;20031;-65
2022/05/24 08:00:52;;;;;;;2.35;1.00;;;;;;;15.73;65.71;98055.06;2623071;54;20042;-65
2022/05/24 08:03:25;;;;;;;5.25;1.20;;;;;;;15.53;67.00;98065.38;2621377;54;20035;-66
2022/05/24 08:05:54;;;;;;;3.90;0.95;;;;;;;15.32;68.14;98061.59;2622219;54;20039;-67
2022/05/24 08:08:24;;;;;;;3.03;1.10;;;;;;;15.36;69.02;98081.38;2621203;47;20117;-66
2022/05/24 08:10:54;;;;;;;2.10;1.30;;;;;;;15.29;68.42;98075.38;2622490;47;20046;-66
2022/05/24 08:13:23;;;;;;;0.80;0.80;;;;;;;15.23;68.71;98081.69;2621955;47;20029;-67
2022/05/24 08:15:55;;;;;;;1.83;0.95;;;;;;;15.22;68.25;98086.19;2622746;54;20026;-66
2022/05/24 08:18:28;;;;;;;1.00;0.90;;;;;;;15.27;67.49;98088.13;2623270;54;20118;-66
2022/05/24 08:20:59;;;;;;;1.83;0.68;;;;;;;15.45;67.42;98095.91;2623792;54;20578;-67
2022/05/24 08:23:30;;;;;;;1.52;0.70;;;;;;;15.40;66.52;98093.16;2624257;39;20423;-66
2022/05/24 08:26:00;;;;;;;1.20;1.10;;;;;;;15.26;66.02;98095.28;2622758;54;20053;-68
2022/05/24 08:28:30;;;;;;;4.25;1.35;;;;;;;15.18;66.11;98103.66;2622683;46;20137;-66
2022/05/24 08:31:07;;;;;;;1.38;0.90;;;;;;;15.06;65.54;98090.44;2621842;54;20038;-66
2022/05/24 08:33:40;;;;;;;1.85;0.93;;;;;;;15.15;66.19;98108.69;2622866;54;20590;-66
2022/05/24 08:36:10;;;;;;;0.88;0.73;;;;;;;15.22;66.18;98110.13;2623051;54;20030;-66
2022/05/24 08:38:41;;;;;;;1.55;0.95;;;;;;;15.23;66.10;98105.66;2622400;54;20031;-66
2022/05/24 08:41:15;;;;;;;2.25;1.23;;;;;;;15.28;65.82;98109.19;2623118;54;20039;-66
2022/05/24 08:48:22;;;;;;;2.38;1.08;;;;;;;15.30;64.89;98112.41;2622435;54;20041;-66
2022/05/24 08:49:57;;;;;;;1.83;1.30;;;;;;;15.15;64.14;98098.84;2622229;54;20042;-65
2022/05/24 08:52:34;;;;;;;1.45;1.00;;;;;;;15.08;64.35;98106.97;2623386;54;20044;-66
2022/05/24 08:55:04;;;;;;;4.03;1.35;;;;;;;15.04;64.19;98110.34;2623189;54;20038;-66
2022/05/24 08:57:42;;;;;;;2.95;1.25;;;;;;;14.99;64.06;98102.28;2622250;54;20026;-67
2022/05/24 09:00:15;;;;;;;2.63;1.40;;;;;;;14.90;64.34;98117.81;2621574;54;20034;-66
2022/05/24 09:02:47;;;;;;;3.28;1.58;;;;;;;14.89;64.49;98118.84;2620397;54;20848;-67
2022/05/24 09:05:23;;;;;;;2.90;1.40;;;;;;;14.97;64.56;98130.97;2620487;47;20077;-66
2022/05/24 09:08:10;;;;;;;4.57;1.40;;;;;;;15.14;64.84;98128.34;2620825;54;20027;-66
2022/05/24 09:10:47;;;;;;;4.05;1.40;;;;;;;15.39;64.33;98135.97;2620156;54;20038;-65
2022/05/24 09:13:50;;;;;;;4.18;1.20;;;;;;;15.49;64.09;98144.16;2619277;47;20061;-66
2022/05/24 09:16:20;;;;;;;3.55;1.70;;;;;;;15.65;64.14;98138.09;2619591;54;20023;-66
2022/05/24 09:18:58;;;;;;;2.05;1.70;;;;;;;15.95;63.71;98136.94;2618739;54;20030;-67
2022/05/24 09:21:32;;;;;;;3.45;1.63;;;;;;;16.16;64.21;98128.19;2618756;54;20035;-66
2022/05/24 09:24:05;;;;;;;;;;;;;;;16.26;63.38;98125.69;2620327;54;20030;-67
2022/05/24 09:26:35;;;;;;;1.77;1.40;;;;;;;16.42;62.77;98124.03;2620402;54;19957;-67
2022/05/24 09:29:13;;;;;;;5.60;1.25;;;;;;;16.75;61.71;98133.03;2619938;54;20046;-67
2022/05/24 09:31:46;;;;;;;2.08;1.00;;;;;;;16.84;59.13;98126.19;2619757;54;20045;-67
2022/05/24 09:34:32;;;;;;;2.35;1.30;;;;;;;17.14;59.23;98135.56;2620290;54;20062;-67
2022/05/24 09:37:09;;;;;;;3.75;1.20;;;;;;;17.16;58.65;98122.78;2619645;54;20038;-67
2022/05/24 09:39:41;;;;;;;1.77;0.77;;;;;;;17.26;58.84;98120.22;2620330;54;20035;-67
2022/05/24 09:42:14;;;;;;;5.43;1.40;;;;;;;17.54;57.96;98119.94;2619448;54;20038;-66
2022/05/24 09:44:51;;;;;;;3.22;1.00;;;;;;;17.69;56.40;98118.47;2620909;54;20030;-67
2022/05/24 09:47:26;;;;;;;3.42;0.77;;;;;;;17.80;54.66;98104.97;2620722;51;20033;-67
2022/05/24 09:49:56;;;;;;;1.27;1.15;;;;;;;18.07;54.22;98114.75;2620799;47;20402;-67
2022/05/24 09:52:28;;;;;;;3.13;1.23;;;;;;;18.07;53.33;98117.44;2620720;47;20022;-67
2022/05/24 09:55:00;;;;;;;1.73;0.90;;;;;;;18.06;52.83;98123.84;2621191;54;20031;-66
2022/05/24 09:57:32;;;;;;;1.40;0.80;;;;;;;18.25;53.22;98127.72;2620496;47;20030;-67
2022/05/24 10:00:09;;;;;;;3.05;0.90;;;;;;;18.41;52.14;98120.59;2621338;39;20431;-66
2022/05/24 10:02:42;;;;;;;1.40;0.95;;;;;;;18.57;51.53;98118.78;2620907;54;20034;-66
2022/05/24 10:05:21;;;;;;;1.42;0.95;;;;;;;18.72;50.87;98121.56;2619914;54;20030;-66
2022/05/24 10:08:03;;;;;;;1.85;1.17;;;;;;;18.67;50.21;98113.47;2621396;39;20476;-66
2022/05/24 10:10:38;;;;;;;2.00;1.00;;;;;;;18.24;50.56;98128.78;2620057;47;20034;-66
2022/05/24 10:13:17;;;;;;;1.83;1.20;;;;;;;18.07;51.33;98133.47;2621329;39;20428;-66
2022/05/24 10:15:59;;;;;;;5.13;1.65;;;;;;;18.00;51.45;98131.03;2622012;54;20026;-66
2022/05/24 10:18:47;;;;;;;1.20;0.93;;;;;;;17.80;50.77;98134.38;2621858;54;20034;-66
2022/05/24 10:21:25;;;;;;;2.40;0.90;;;;;;;17.61;50.90;98143.78;2622633;39;20454;-65
2022/05/24 10:24:13;;;;;;;2.65;1.08;;;;;;;17.60;51.72;98136.84;2621937;54;20030;-66
2022/05/24 10:26:56;;;;;;;3.10;1.83;;;;;;;17.71;51.19;98151.88;2621425;54;20027;-66
2022/05/24 10:29:39;;;;;;;3.50;1.13;;;;;;;17.49;50.89;98149.28;2622632;54;20029;-66
2022/05/24 10:38:17;;;;;;;1.08;0.80;;;;;;;17.54;49.09;98151.19;2621869;54;20030;-66
2022/05/24 10:38:21;;;;;;;2.67;1.25;;;;;;;17.73;48.17;98154.31;2621958;54;20151;-67
2022/05/24 10:41:03;;;;;;;1.95;0.80;;;;;;;18.12;48.13;98143.41;2621740;54;20038;-66
2022/05/24 10:43:47;;;;;;;1.80;0.80;;;;;;;18.21;46.94;98145.34;2620903;54;20037;-66
2022/05/24 10:46:18;;;;;;;;;;;;;;;18.24;46.28;98147.50;2621599;54;20061;-65
2022/05/24 10:48:56;;;;;;;1.50;1.00;;;;;;;18.41;45.46;98160.72;2620857;54;19946;-65
2022/05/24 10:51:33;;;;;;;4.70;1.27;;;;;;;18.55;44.77;98150.38;2621158;54;20037;-66
2022/05/24 10:54:07;;;;;;;3.35;0.90;;;;;;;18.62;44.55;98153.63;2620683;54;20082;-66
2022/05/24 10:56:47;;;;;;;1.45;0.80;;;;;;;18.70;45.34;98150.47;2620523;54;20034;-67
2022/05/24 10:59:28;;;;;;;2.53;0.75;;;;;;;18.69;44.94;98146.13;2620322;54;20042;-67
2022/05/24 11:02:02;;;;;;;4.32;1.00;;;;;;;18.70;46.07;98147.00;2619547;54;20042;-66
2022/05/24 11:04:49;;;;;;;2.45;1.10;;;;;;;18.59;46.97;98150.66;2620568;54;20035;-66
2022/05/24 11:07:21;;;;;;;2.42;1.23;;;;;;;18.45;47.32;98147.63;2621332;39;20411;-66
2022/05/24 11:10:03;;;;;;;1.25;0.93;;;;;;;18.35;47.84;98156.41;2622263;54;20126;-66
2022/05/24 11:12:41;;;;;;;2.53;0.82;;;;;;;18.26;47.67;98163.31;2622242;54;20037;-66
2022/05/24 11:15:22;;;;;;;1.73;0.90;;;;;;;18.30;48.14;98161.72;2623111;54;20027;-67
2022/05/24 11:17:52;;;;;;;3.10;1.60;;;;;;;18.61;48.54;98151.97;2623043;54;20026;-66
2022/05/24 11:20:31;;;;;;;1.50;1.08;;;;;;;18.81;47.62;98154.78;2622800;54;20042;-67
2022/05/24 11:23:10;;;;;;;1.58;0.80;;;;;;;18.81;47.25;98160.13;2622513;47;20027;-67
2022/05/24 11:25:44;;;;;;;1.75;1.40;;;;;;;18.63;46.98;98165.94;2622297;54;20038;-67
2022/05/24 11:28:32;;;;;;;;;;;;;;;18.43;46.46;98169.28;2623079;54;20038;-67
2022/05/24 11:31:29;;;;;;;3.00;1.17;;;;;;;18.45;46.56;98159.16;2622711;47;19947;-67
2022/05/24 11:34:01;;;;;;;1.48;1.00;;;;;;;18.47;46.27;98175.75;2623050;54;20030;-67
2022/05/24 11:36:43;;;;;;;3.15;1.00;;;;;;;18.65;45.02;98179.03;2623352;39;20519;-66
2022/05/24 11:39:20;;;;;;;2.17;0.85;;;;;;;18.66;44.30;98178.81;2622054;46;20042;-66
2022/05/24 11:41:50;;;;;;;2.55;0.73;;;;;;;18.62;44.32;98168.88;2622303;54;20559;-66
2022/05/24 11:44:37;;;;;;;1.15;0.68;;;;;;;18.80;44.30;98177.28;2620636;54;20038;-67
2022/05/24 11:47:09;;;;;;;1.63;0.80;;;;;;;18.95;43.69;98175.75;2620128;54;20061;-66
2022/05/24 11:50:08;;;;;;;1.83;0.80;;;;;;;19.10;43.67;98167.75;2620335;54;20178;-66
2022/05/24 11:53:01;;;;;;;2.03;1.35;;;;;;;19.23;43.58;98172.63;2622424;54;20030;-66
2022/05/24 11:55:53;;;;;;;1.70;1.00;;;;;;;19.29;43.71;98165.41;2622229;54;20543;-67
2022/05/24 11:59:00;;;;;;;1.38;0.77;;;;;;;19.18;43.54;98161.06;2621493;54;20038;-68
2022/05/24 12:01:47;;;;;;;0.73;0.65;;;;;;;19.30;44.10;98154.41;2623272;54;20030;-67
2022/05/24 12:09:58;;;;;;;2.17;0.60;;;;;;;19.43;43.39;98161.16;2624164;54;20026;-66
2022/05/24 12:12:33;;;;;;;2.97;0.77;;;;;;;19.36;43.58;98174.00;2623200;54;20033;-69
2022/05/24 12:15:18;;;;;;;0.95;0.68;;;;;;;19.20;43.31;98169.66;2621839;47;20038;-67
2022/05/24 12:18:16;;;;;;;5.35;0.68;;;;;;;19.04;43.17;98174.16;2623108;54;20042;-66
2022/05/24 12:20:59;;;;;;;0.95;0.70;;;;;;;18.99;42.98;98166.13;2623787;54;20042;-66
2022/05/24 12:23:42;;;;;;;2.13;0.57;;;;;;;19.00;43.17;98175.75;2624383;54;20587;-67
2022/05/24 12:26:17;;;;;;;1.27;0.70;;;;;;;19.04;43.63;98168.81;2624788;54;20038;-66
2022/05/24 12:28:51;;;;;;;1.55;0.80;;;;;;;19.03;43.75;98170.69;2624423;54;20031;-67
2022/05/24 12:31:33;;;;;;;2.08;1.00;;;;;;;19.22;43.39;98165.63;2623042;54;20550;-67
2022/05/24 12:34:13;;;;;;;1.77;0.90;;;;;;;19.17;43.35;98175.53;2622935;54;20026;-69
2022/05/24 12:36:46;;;;;;;1.05;0.80;;;;;;;19.13;42.73;98175.25;2620366;54;20022;-67
2022/05/24 12:39:36;;;;;;;1.33;0.85;;;;;;;19.09;42.58;98173.38;2619572;54;20038;-67
2022/05/24 12:42:13;;;;;;;4.30;1.15;;;;;;;19.23;42.25;98178.00;2619778;54;20037;-68
2022/05/24 12:44:48;;;;;;;3.83;1.33;;;;;;;19.37;41.93;98167.56;2621090;54;20027;-66
2022/05/24 12:47:22;;;;;;;2.38;0.90;;;;;;;19.53;41.31;98166.50;2621515;54;20034;-66